sensor_id;sensor_type;location;lat;lon;timestamp;P1;durP1;ratioP1;P2;durP2;ratioP2
8887;SDS011;4480;52.370;9.748;2023-07-31T00:00:08;3.20;;;2.60;;
8887;SDS011;4480;52.370;9.748;2023-07-31T00:02:36;3.87;;;3.20;;
8887;SDS011;4480;52.370;9.748;2023-07-31T00:05:02;2.73;;;2.43;;
8887;SDS011;4480;52.370;9.748;2023-07-31T00:07:30;3.63;;;2.60;;
8887;SDS011;4480;52.370;9.748;2023-07-31T00:09:59;3.70;;;2.77;;
8887;SDS011;4480;52.370;9.748;2023-07-31T00:12:26;3.37;;;2.53;;
8887;SDS011;4480;52.370;9.748;2023-07-31T00:14:53;2.73;;;2.43;;
8887;SDS011;4480;52.370;9.748;2023-07-31T00:17:20;4.60;;;3.13;;
8887;SDS011;4480;52.370;9.748;2023-07-31T00:19:46;3.60;;;2.40;;
8887;SDS011;4480;52.370;9.748;2023-07-31T00:22:15;3.97;;;2.70;;
8887;SDS011;4480;52.370;9.748;2023-07-31T00:24:42;2.83;;;2.30;;
8887;SDS011;4480;52.370;9.748;2023-07-31T00:27:10;3.57;;;3.20;;
8887;SDS011;4480;52.370;9.748;2023-07-31T00:29:37;3.83;;;2.70;;
8887;SDS011;4480;52.370;9.748;2023-07-31T00:32:04;2.80;;;2.43;;
8887;SDS011;4480;52.370;9.748;2023-07-31T00:34:32;3.60;;;2.40;;
8887;SDS011;4480;52.370;9.748;2023-07-31T00:36:58;5.13;;;2.40;;
8887;SDS011;4480;52.370;9.748;2023-07-31T00:39:25;3.40;;;2.67;;
8887;SDS011;4480;52.370;9.748;2023-07-31T00:41:52;3.33;;;1.83;;
8887;SDS011;4480;52.370;9.748;2023-07-31T00:44:20;4.60;;;3.03;;
8887;SDS011;4480;52.370;9.748;2023-07-31T00:46:47;6.40;;;2.33;;
8887;SDS011;4480;52.370;9.748;2023-07-31T00:49:14;4.93;;;2.60;;
8887;SDS011;4480;52.370;9.748;2023-07-31T00:51:41;3.70;;;2.53;;
8887;SDS011;4480;52.370;9.748;2023-07-31T00:54:08;2.73;;;2.43;;
8887;SDS011;4480;52.370;9.748;2023-07-31T00:56:36;3.90;;;2.70;;
8887;SDS011;4480;52.370;9.748;2023-07-31T00:59:03;5.50;;;2.37;;
8887;SDS011;4480;52.370;9.748;2023-07-31T01:01:32;2.97;;;2.50;;
8887;SDS011;4480;52.370;9.748;2023-07-31T01:03:58;5.53;;;2.23;;
8887;SDS011;4480;52.370;9.748;2023-07-31T01:06:28;2.90;;;2.03;;
8887;SDS011;4480;52.370;9.748;2023-07-31T01:09:00;4.13;;;3.63;;
8887;SDS011;4480;52.370;9.748;2023-07-31T01:11:30;2.47;;;2.27;;
8887;SDS011;4480;52.370;9.748;2023-07-31T01:13:59;4.13;;;2.67;;
8887;SDS011;4480;52.370;9.748;2023-07-31T01:16:26;2.77;;;2.20;;
8887;SDS011;4480;52.370;9.748;2023-07-31T01:18:54;3.13;;;1.90;;
8887;SDS011;4480;52.370;9.748;2023-07-31T01:21:30;2.00;;;1.80;;
8887;SDS011;4480;52.370;9.748;2023-07-31T01:24:20;1.80;;;1.40;;
8887;SDS011;4480;52.370;9.748;2023-07-31T01:26:55;2.80;;;1.80;;
8887;SDS011;4480;52.370;9.748;2023-07-31T01:29:26;2.40;;;2.20;;
8887;SDS011;4480;52.370;9.748;2023-07-31T01:31:59;1.90;;;1.73;;
8887;SDS011;4480;52.370;9.748;2023-07-31T01:34:27;2.50;;;1.97;;
8887;SDS011;4480;52.370;9.748;2023-07-31T01:36:55;2.70;;;2.13;;
8887;SDS011;4480;52.370;9.748;2023-07-31T01:39:22;3.40;;;1.80;;
8887;SDS011;4480;52.370;9.748;2023-07-31T01:41:49;2.40;;;1.97;;
8887;SDS011;4480;52.370;9.748;2023-07-31T01:44:17;2.87;;;1.60;;
8887;SDS011;4480;52.370;9.748;2023-07-31T01:46:44;3.20;;;1.97;;
8887;SDS011;4480;52.370;9.748;2023-07-31T01:49:10;2.87;;;1.57;;
8887;SDS011;4480;52.370;9.748;2023-07-31T01:51:37;3.40;;;2.33;;
8887;SDS011;4480;52.370;9.748;2023-07-31T01:54:04;2.60;;;1.93;;
8887;SDS011;4480;52.370;9.748;2023-07-31T01:56:31;2.50;;;2.30;;
8887;SDS011;4480;52.370;9.748;2023-07-31T01:58:58;5.40;;;2.13;;
8887;SDS011;4480;52.370;9.748;2023-07-31T02:01:26;2.50;;;1.70;;
8887;SDS011;4480;52.370;9.748;2023-07-31T02:03:52;3.07;;;1.60;;
8887;SDS011;4480;52.370;9.748;2023-07-31T02:06:19;2.80;;;1.60;;
8887;SDS011;4480;52.370;9.748;2023-07-31T02:08:47;2.70;;;1.50;;
8887;SDS011;4480;52.370;9.748;2023-07-31T02:11:14;1.20;;;1.10;;
8887;SDS011;4480;52.370;9.748;2023-07-31T02:13:41;1.50;;;1.30;;
8887;SDS011;4480;52.370;9.748;2023-07-31T02:16:08;4.57;;;1.60;;
8887;SDS011;4480;52.370;9.748;2023-07-31T02:18:36;2.87;;;1.80;;
8887;SDS011;4480;52.370;9.748;2023-07-31T02:21:03;1.63;;;1.50;;
8887;SDS011;4480;52.370;9.748;2023-07-31T02:23:29;2.53;;;1.87;;
8887;SDS011;4480;52.370;9.748;2023-07-31T02:25:56;3.40;;;1.93;;
8887;SDS011;4480;52.370;9.748;2023-07-31T02:28:23;2.70;;;1.70;;
8887;SDS011;4480;52.370;9.748;2023-07-31T02:30:50;1.67;;;1.57;;
8887;SDS011;4480;52.370;9.748;2023-07-31T02:33:17;2.00;;;1.43;;
8887;SDS011;4480;52.370;9.748;2023-07-31T02:35:45;2.90;;;1.40;;
8887;SDS011;4480;52.370;9.748;2023-07-31T02:38:12;3.17;;;1.30;;
8887;SDS011;4480;52.370;9.748;2023-07-31T02:40:39;1.30;;;1.20;;
8887;SDS011;4480;52.370;9.748;2023-07-31T02:43:06;1.60;;;1.30;;
8887;SDS011;4480;52.370;9.748;2023-07-31T02:45:33;4.60;;;1.40;;
8887;SDS011;4480;52.370;9.748;2023-07-31T02:48:00;1.43;;;1.10;;
8887;SDS011;4480;52.370;9.748;2023-07-31T02:50:27;1.47;;;1.30;;
8887;SDS011;4480;52.370;9.748;2023-07-31T02:52:55;1.20;;;1.10;;
8887;SDS011;4480;52.370;9.748;2023-07-31T02:55:21;3.00;;;1.20;;
8887;SDS011;4480;52.370;9.748;2023-07-31T02:57:48;1.60;;;1.50;;
8887;SDS011;4480;52.370;9.748;2023-07-31T03:00:17;2.20;;;1.50;;
8887;SDS011;4480;52.370;9.748;2023-07-31T03:02:44;2.60;;;1.93;;
8887;SDS011;4480;52.370;9.748;2023-07-31T03:05:10;2.67;;;1.47;;
8887;SDS011;4480;52.370;9.748;2023-07-31T03:07:37;1.83;;;1.73;;
8887;SDS011;4480;52.370;9.748;2023-07-31T03:10:06;2.07;;;1.27;;
8887;SDS011;4480;52.370;9.748;2023-07-31T03:12:33;2.20;;;1.90;;
8887;SDS011;4480;52.370;9.748;2023-07-31T03:15:00;2.33;;;1.60;;
8887;SDS011;4480;52.370;9.748;2023-07-31T03:17:27;2.47;;;1.47;;
8887;SDS011;4480;52.370;9.748;2023-07-31T03:19:54;0.97;;;0.93;;
8887;SDS011;4480;52.370;9.748;2023-07-31T03:22:20;1.53;;;1.30;;
8887;SDS011;4480;52.370;9.748;2023-07-31T03:24:47;1.27;;;1.17;;
8887;SDS011;4480;52.370;9.748;2023-07-31T03:27:15;1.90;;;1.30;;
8887;SDS011;4480;52.370;9.748;2023-07-31T03:29:42;1.97;;;1.40;;
8887;SDS011;4480;52.370;9.748;2023-07-31T03:32:09;3.20;;;1.50;;
8887;SDS011;4480;52.370;9.748;2023-07-31T03:34:36;1.50;;;1.33;;
8887;SDS011;4480;52.370;9.748;2023-07-31T03:37:02;1.70;;;1.60;;
8887;SDS011;4480;52.370;9.748;2023-07-31T03:39:30;2.50;;;1.83;;
8887;SDS011;4480;52.370;9.748;2023-07-31T03:41:57;3.13;;;1.40;;
8887;SDS011;4480;52.370;9.748;2023-07-31T03:44:25;1.90;;;1.53;;
8887;SDS011;4480;52.370;9.748;2023-07-31T03:46:52;2.00;;;1.70;;
8887;SDS011;4480;52.370;9.748;2023-07-31T03:49:19;2.63;;;1.70;;
8887;SDS011;4480;52.370;9.748;2023-07-31T03:51:46;1.50;;;1.40;;
8887;SDS011;4480;52.370;9.748;2023-07-31T03:54:12;1.77;;;1.50;;
8887;SDS011;4480;52.370;9.748;2023-07-31T03:56:39;2.63;;;1.97;;
8887;SDS011;4480;52.370;9.748;2023-07-31T03:59:06;2.60;;;2.40;;
8887;SDS011;4480;52.370;9.748;2023-07-31T04:01:34;1.60;;;1.50;;
8887;SDS011;4480;52.370;9.748;2023-07-31T04:04:01;1.70;;;1.57;;
8887;SDS011;4480;52.370;9.748;2023-07-31T04:06:28;6.37;;;2.20;;
8887;SDS011;4480;52.370;9.748;2023-07-31T04:11:59;2.07;;;1.57;;
8887;SDS011;4480;52.370;9.748;2023-07-31T04:14:26;2.50;;;1.60;;
8887;SDS011;4480;52.370;9.748;2023-07-31T04:16:53;1.40;;;1.30;;
8887;SDS011;4480;52.370;9.748;2023-07-31T04:19:20;1.93;;;1.20;;
8887;SDS011;4480;52.370;9.748;2023-07-31T04:21:46;1.40;;;1.30;;
8887;SDS011;4480;52.370;9.748;2023-07-31T04:24:13;1.70;;;1.60;;
8887;SDS011;4480;52.370;9.748;2023-07-31T04:26:40;2.10;;;1.90;;
8887;SDS011;4480;52.370;9.748;2023-07-31T04:29:08;3.90;;;3.20;;
8887;SDS011;4480;52.370;9.748;2023-07-31T04:31:35;3.30;;;1.70;;
8887;SDS011;4480;52.370;9.748;2023-07-31T04:34:01;1.63;;;1.53;;
8887;SDS011;4480;52.370;9.748;2023-07-31T04:36:29;3.20;;;1.60;;
8887;SDS011;4480;52.370;9.748;2023-07-31T04:38:56;2.23;;;1.37;;
8887;SDS011;4480;52.370;9.748;2023-07-31T04:41:23;2.10;;;1.47;;
8887;SDS011;4480;52.370;9.748;2023-07-31T04:43:49;2.20;;;1.67;;
8887;SDS011;4480;52.370;9.748;2023-07-31T04:46:18;3.43;;;2.13;;
8887;SDS011;4480;52.370;9.748;2023-07-31T04:48:44;2.40;;;1.70;;
8887;SDS011;4480;52.370;9.748;2023-07-31T04:51:11;1.90;;;1.60;;
8887;SDS011;4480;52.370;9.748;2023-07-31T04:53:38;3.77;;;1.70;;
8887;SDS011;4480;52.370;9.748;2023-07-31T04:56:05;2.67;;;1.87;;
8887;SDS011;4480;52.370;9.748;2023-07-31T04:58:32;1.60;;;1.20;;
8887;SDS011;4480;52.370;9.748;2023-07-31T05:00:58;1.60;;;1.20;;
8887;SDS011;4480;52.370;9.748;2023-07-31T05:03:27;1.50;;;1.20;;
8887;SDS011;4480;52.370;9.748;2023-07-31T05:05:53;1.83;;;1.10;;
8887;SDS011;4480;52.370;9.748;2023-07-31T05:08:20;1.40;;;1.00;;
8887;SDS011;4480;52.370;9.748;2023-07-31T05:10:47;2.60;;;1.30;;
8887;SDS011;4480;52.370;9.748;2023-07-31T05:13:13;1.70;;;1.10;;
8887;SDS011;4480;52.370;9.748;2023-07-31T05:15:40;1.37;;;1.27;;
8887;SDS011;4480;52.370;9.748;2023-07-31T05:18:07;2.23;;;1.10;;
8887;SDS011;4480;52.370;9.748;2023-07-31T05:20:35;2.20;;;1.40;;
8887;SDS011;4480;52.370;9.748;2023-07-31T05:23:02;2.00;;;1.03;;
8887;SDS011;4480;52.370;9.748;2023-07-31T05:25:29;1.23;;;1.13;;
8887;SDS011;4480;52.370;9.748;2023-07-31T05:27:56;1.50;;;1.10;;
8887;SDS011;4480;52.370;9.748;2023-07-31T05:30:23;2.50;;;1.80;;
8887;SDS011;4480;52.370;9.748;2023-07-31T05:32:49;2.10;;;1.50;;
8887;SDS011;4480;52.370;9.748;2023-07-31T05:35:16;2.03;;;1.83;;
8887;SDS011;4480;52.370;9.748;2023-07-31T05:37:44;1.60;;;1.50;;
8887;SDS011;4480;52.370;9.748;2023-07-31T05:40:11;1.63;;;1.37;;
8887;SDS011;4480;52.370;9.748;2023-07-31T05:42:38;2.00;;;1.63;;
8887;SDS011;4480;52.370;9.748;2023-07-31T05:45:05;3.13;;;2.50;;
8887;SDS011;4480;52.370;9.748;2023-07-31T05:47:33;3.07;;;2.10;;
8887;SDS011;4480;52.370;9.748;2023-07-31T05:49:59;2.90;;;2.70;;
8887;SDS011;4480;52.370;9.748;2023-07-31T05:52:26;3.30;;;3.00;;
8887;SDS011;4480;52.370;9.748;2023-07-31T05:54:55;4.97;;;2.77;;
8887;SDS011;4480;52.370;9.748;2023-07-31T05:57:22;4.23;;;3.20;;
8887;SDS011;4480;52.370;9.748;2023-07-31T05:59:48;5.30;;;3.80;;
8887;SDS011;4480;52.370;9.748;2023-07-31T06:02:15;6.80;;;4.80;;
8887;SDS011;4480;52.370;9.748;2023-07-31T06:04:42;6.27;;;4.80;;
8887;SDS011;4480;52.370;9.748;2023-07-31T06:07:09;5.50;;;5.00;;
8887;SDS011;4480;52.370;9.748;2023-07-31T06:09:36;7.80;;;5.30;;
8887;SDS011;4480;52.370;9.748;2023-07-31T06:12:05;10.27;;;5.17;;
8887;SDS011;4480;52.370;9.748;2023-07-31T06:14:32;6.80;;;5.00;;
8887;SDS011;4480;52.370;9.748;2023-07-31T06:16:59;10.10;;;6.37;;
8887;SDS011;4480;52.370;9.748;2023-07-31T06:19:26;9.50;;;6.83;;
8887;SDS011;4480;52.370;9.748;2023-07-31T06:21:52;12.33;;;8.00;;
8887;SDS011;4480;52.370;9.748;2023-07-31T06:24:19;9.10;;;7.07;;
8887;SDS011;4480;52.370;9.748;2023-07-31T06:26:47;9.50;;;7.87;;
8887;SDS011;4480;52.370;9.748;2023-07-31T06:29:15;7.60;;;6.80;;
8887;SDS011;4480;52.370;9.748;2023-07-31T06:31:42;9.67;;;7.13;;
8887;SDS011;4480;52.370;9.748;2023-07-31T06:34:08;10.63;;;7.40;;
8887;SDS011;4480;52.370;9.748;2023-07-31T06:36:35;9.07;;;6.67;;
8887;SDS011;4480;52.370;9.748;2023-07-31T06:39:02;11.10;;;6.47;;
8887;SDS011;4480;52.370;9.748;2023-07-31T06:41:29;8.37;;;6.87;;
8887;SDS011;4480;52.370;9.748;2023-07-31T06:43:56;10.70;;;7.30;;
8887;SDS011;4480;52.370;9.748;2023-07-31T06:46:24;11.40;;;7.17;;
8887;SDS011;4480;52.370;9.748;2023-07-31T06:48:50;9.30;;;7.67;;
8887;SDS011;4480;52.370;9.748;2023-07-31T06:51:17;9.93;;;7.00;;
8887;SDS011;4480;52.370;9.748;2023-07-31T06:53:45;12.13;;;7.87;;
8887;SDS011;4480;52.370;9.748;2023-07-31T06:56:12;8.37;;;6.90;;
8887;SDS011;4480;52.370;9.748;2023-07-31T06:58:38;10.13;;;7.37;;
8887;SDS011;4480;52.370;9.748;2023-07-31T07:01:05;10.60;;;7.80;;
8887;SDS011;4480;52.370;9.748;2023-07-31T07:03:33;12.50;;;8.50;;
8887;SDS011;4480;52.370;9.748;2023-07-31T07:06:00;9.83;;;8.27;;
8887;SDS011;4480;52.370;9.748;2023-07-31T07:08:27;13.13;;;8.83;;
8887;SDS011;4480;52.370;9.748;2023-07-31T07:10:54;9.17;;;8.00;;
8887;SDS011;4480;52.370;9.748;2023-07-31T07:13:21;11.10;;;8.70;;
8887;SDS011;4480;52.370;9.748;2023-07-31T07:15:48;12.23;;;9.40;;
8887;SDS011;4480;52.370;9.748;2023-07-31T07:18:15;12.43;;;10.23;;
8887;SDS011;4480;52.370;9.748;2023-07-31T07:20:47;14.37;;;9.83;;
8887;SDS011;4480;52.370;9.748;2023-07-31T07:23:15;12.63;;;10.20;;
8887;SDS011;4480;52.370;9.748;2023-07-31T07:25:42;13.50;;;10.37;;
8887;SDS011;4480;52.370;9.748;2023-07-31T07:28:08;14.33;;;10.83;;
8887;SDS011;4480;52.370;9.748;2023-07-31T07:30:35;12.83;;;10.50;;
8887;SDS011;4480;52.370;9.748;2023-07-31T07:33:02;12.20;;;9.73;;
8887;SDS011;4480;52.370;9.748;2023-07-31T07:35:29;15.80;;;11.17;;
8887;SDS011;4480;52.370;9.748;2023-07-31T07:37:58;15.17;;;11.90;;
8887;SDS011;4480;52.370;9.748;2023-07-31T07:40:25;15.20;;;10.93;;
8887;SDS011;4480;52.370;9.748;2023-07-31T07:42:52;22.17;;;11.40;;
8887;SDS011;4480;52.370;9.748;2023-07-31T07:45:19;14.80;;;10.10;;
8887;SDS011;4480;52.370;9.748;2023-07-31T07:47:46;11.90;;;10.70;;
8887;SDS011;4480;52.370;9.748;2023-07-31T07:50:13;14.03;;;11.23;;
8887;SDS011;4480;52.370;9.748;2023-07-31T07:52:39;10.57;;;9.47;;
8887;SDS011;4480;52.370;9.748;2023-07-31T07:55:08;11.03;;;8.30;;
8887;SDS011;4480;52.370;9.748;2023-07-31T07:57:35;11.80;;;8.60;;
8887;SDS011;4480;52.370;9.748;2023-07-31T08:00:02;10.20;;;9.20;;
8887;SDS011;4480;52.370;9.748;2023-07-31T08:02:29;10.93;;;9.53;;
8887;SDS011;4480;52.370;9.748;2023-07-31T08:04:58;9.63;;;7.90;;
8887;SDS011;4480;52.370;9.748;2023-07-31T08:07:25;9.50;;;7.53;;
8887;SDS011;4480;52.370;9.748;2023-07-31T08:09:52;10.23;;;7.67;;
8887;SDS011;4480;52.370;9.748;2023-07-31T08:12:20;9.23;;;6.50;;
8887;SDS011;4480;52.370;9.748;2023-07-31T08:14:47;8.17;;;6.43;;
8887;SDS011;4480;52.370;9.748;2023-07-31T08:17:14;10.00;;;7.90;;
8887;SDS011;4480;52.370;9.748;2023-07-31T08:19:40;9.53;;;6.47;;
8887;SDS011;4480;52.370;9.748;2023-07-31T08:22:07;6.93;;;5.70;;
8887;SDS011;4480;52.370;9.748;2023-07-31T08:24:34;6.73;;;5.77;;
8887;SDS011;4480;52.370;9.748;2023-07-31T08:27:01;7.00;;;5.57;;
8887;SDS011;4480;52.370;9.748;2023-07-31T08:29:29;8.00;;;6.03;;
8887;SDS011;4480;52.370;9.748;2023-07-31T08:31:56;7.73;;;5.00;;
8887;SDS011;4480;52.370;9.748;2023-07-31T08:34:23;8.90;;;5.63;;
8887;SDS011;4480;52.370;9.748;2023-07-31T08:36:50;6.60;;;5.33;;
8887;SDS011;4480;52.370;9.748;2023-07-31T08:39:17;8.57;;;6.40;;
8887;SDS011;4480;52.370;9.748;2023-07-31T08:41:44;8.37;;;5.50;;
8887;SDS011;4480;52.370;9.748;2023-07-31T08:44:10;9.63;;;5.70;;
8887;SDS011;4480;52.370;9.748;2023-07-31T08:46:41;11.03;;;5.57;;
8887;SDS011;4480;52.370;9.748;2023-07-31T08:49:08;8.00;;;5.00;;
8887;SDS011;4480;52.370;9.748;2023-07-31T08:51:36;8.47;;;5.43;;
8887;SDS011;4480;52.370;9.748;2023-07-31T08:54:03;11.13;;;5.27;;
8887;SDS011;4480;52.370;9.748;2023-07-31T08:56:31;7.17;;;5.30;;
8887;SDS011;4480;52.370;9.748;2023-07-31T08:58:59;8.47;;;5.07;;
8887;SDS011;4480;52.370;9.748;2023-07-31T09:01:29;6.43;;;4.87;;
8887;SDS011;4480;52.370;9.748;2023-07-31T09:03:57;7.07;;;5.07;;
8887;SDS011;4480;52.370;9.748;2023-07-31T09:06:27;9.63;;;6.63;;
8887;SDS011;4480;52.370;9.748;2023-07-31T09:08:56;8.63;;;5.60;;
8887;SDS011;4480;52.370;9.748;2023-07-31T09:11:23;11.13;;;4.73;;
8887;SDS011;4480;52.370;9.748;2023-07-31T09:13:50;7.07;;;4.53;;
8887;SDS011;4480;52.370;9.748;2023-07-31T09:16:18;6.37;;;5.70;;
8887;SDS011;4480;52.370;9.748;2023-07-31T09:18:53;8.43;;;4.93;;
8887;SDS011;4480;52.370;9.748;2023-07-31T09:21:23;5.80;;;5.10;;
8887;SDS011;4480;52.370;9.748;2023-07-31T09:23:51;7.47;;;5.30;;
8887;SDS011;4480;52.370;9.748;2023-07-31T09:26:28;5.37;;;4.50;;
8887;SDS011;4480;52.370;9.748;2023-07-31T09:28:55;8.50;;;5.53;;
8887;SDS011;4480;52.370;9.748;2023-07-31T09:31:31;5.13;;;4.13;;
8887;SDS011;4480;52.370;9.748;2023-07-31T09:34:05;5.40;;;4.70;;
8887;SDS011;4480;52.370;9.748;2023-07-31T09:36:33;6.57;;;4.20;;
8887;SDS011;4480;52.370;9.748;2023-07-31T09:39:06;6.40;;;4.57;;
8887;SDS011;4480;52.370;9.748;2023-07-31T09:41:36;5.47;;;4.10;;
8887;SDS011;4480;52.370;9.748;2023-07-31T09:44:03;3.80;;;3.10;;
8887;SDS011;4480;52.370;9.748;2023-07-31T09:46:31;4.40;;;3.80;;
8887;SDS011;4480;52.370;9.748;2023-07-31T09:49:04;6.40;;;3.47;;
8887;SDS011;4480;52.370;9.748;2023-07-31T09:51:33;5.70;;;3.50;;
8887;SDS011;4480;52.370;9.748;2023-07-31T09:54:03;3.00;;;2.70;;
8887;SDS011;4480;52.370;9.748;2023-07-31T09:56:36;3.80;;;2.97;;
8887;SDS011;4480;52.370;9.748;2023-07-31T09:59:05;2.67;;;2.47;;
8887;SDS011;4480;52.370;9.748;2023-07-31T10:01:33;2.83;;;2.20;;
8887;SDS011;4480;52.370;9.748;2023-07-31T10:04:00;2.83;;;2.60;;
8887;SDS011;4480;52.370;9.748;2023-07-31T10:06:27;3.07;;;2.30;;
8887;SDS011;4480;52.370;9.748;2023-07-31T10:08:56;2.97;;;2.50;;
8887;SDS011;4480;52.370;9.748;2023-07-31T10:11:23;2.67;;;1.80;;
8887;SDS011;4480;52.370;9.748;2023-07-31T10:13:53;2.70;;;2.17;;
8887;SDS011;4480;52.370;9.748;2023-07-31T10:16:21;2.23;;;2.00;;
8887;SDS011;4480;52.370;9.748;2023-07-31T10:18:48;2.67;;;2.07;;
8887;SDS011;4480;52.370;9.748;2023-07-31T10:21:16;2.37;;;2.10;;
8887;SDS011;4480;52.370;9.748;2023-07-31T10:23:44;2.77;;;1.70;;
8887;SDS011;4480;52.370;9.748;2023-07-31T10:26:14;2.63;;;1.70;;
8887;SDS011;4480;52.370;9.748;2023-07-31T10:28:45;3.00;;;2.47;;
8887;SDS011;4480;52.370;9.748;2023-07-31T10:31:14;2.90;;;2.33;;
8887;SDS011;4480;52.370;9.748;2023-07-31T10:33:41;2.90;;;2.43;;
8887;SDS011;4480;52.370;9.748;2023-07-31T10:36:12;2.47;;;1.70;;
8887;SDS011;4480;52.370;9.748;2023-07-31T10:38:39;1.90;;;1.80;;
8887;SDS011;4480;52.370;9.748;2023-07-31T10:41:09;2.60;;;2.13;;
8887;SDS011;4480;52.370;9.748;2023-07-31T10:43:38;3.70;;;2.07;;
8887;SDS011;4480;52.370;9.748;2023-07-31T10:46:08;2.00;;;1.80;;
8887;SDS011;4480;52.370;9.748;2023-07-31T10:48:38;2.17;;;1.70;;
8887;SDS011;4480;52.370;9.748;2023-07-31T10:51:07;2.50;;;1.70;;
8887;SDS011;4480;52.370;9.748;2023-07-31T10:53:36;4.43;;;2.07;;
8887;SDS011;4480;52.370;9.748;2023-07-31T10:56:03;3.93;;;1.43;;
8887;SDS011;4480;52.370;9.748;2023-07-31T10:58:31;2.90;;;1.60;;
8887;SDS011;4480;52.370;9.748;2023-07-31T11:01:02;2.37;;;2.10;;
8887;SDS011;4480;52.370;9.748;2023-07-31T11:03:42;2.67;;;2.00;;
8887;SDS011;4480;52.370;9.748;2023-07-31T11:06:10;3.13;;;2.47;;
8887;SDS011;4480;52.370;9.748;2023-07-31T11:08:41;3.83;;;2.10;;
8887;SDS011;4480;52.370;9.748;2023-07-31T11:11:09;2.10;;;1.77;;
8887;SDS011;4480;52.370;9.748;2023-07-31T11:13:41;2.37;;;2.17;;
8887;SDS011;4480;52.370;9.748;2023-07-31T11:16:11;2.40;;;1.70;;
8887;SDS011;4480;52.370;9.748;2023-07-31T11:18:40;2.77;;;2.37;;
8887;SDS011;4480;52.370;9.748;2023-07-31T11:21:11;2.43;;;1.80;;
8887;SDS011;4480;52.370;9.748;2023-07-31T11:23:39;3.40;;;2.17;;
8887;SDS011;4480;52.370;9.748;2023-07-31T11:26:06;2.20;;;2.00;;
8887;SDS011;4480;52.370;9.748;2023-07-31T11:28:34;2.77;;;2.10;;
8887;SDS011;4480;52.370;9.748;2023-07-31T11:31:01;2.33;;;2.10;;
8887;SDS011;4480;52.370;9.748;2023-07-31T11:33:30;1.97;;;1.73;;
8887;SDS011;4480;52.370;9.748;2023-07-31T11:35:57;3.17;;;2.43;;
8887;SDS011;4480;52.370;9.748;2023-07-31T11:38:24;3.77;;;2.40;;
8887;SDS011;4480;52.370;9.748;2023-07-31T11:40:52;3.13;;;2.30;;
8887;SDS011;4480;52.370;9.748;2023-07-31T11:43:20;2.50;;;2.30;;
8887;SDS011;4480;52.370;9.748;2023-07-31T11:45:47;3.13;;;2.00;;
8887;SDS011;4480;52.370;9.748;2023-07-31T11:48:18;2.67;;;2.23;;
8887;SDS011;4480;52.370;9.748;2023-07-31T11:50:48;3.07;;;2.37;;
8887;SDS011;4480;52.370;9.748;2023-07-31T11:53:16;3.03;;;1.73;;
8887;SDS011;4480;52.370;9.748;2023-07-31T11:55:46;2.70;;;1.93;;
8887;SDS011;4480;52.370;9.748;2023-07-31T11:58:14;2.97;;;2.00;;
8887;SDS011;4480;52.370;9.748;2023-07-31T12:00:42;2.67;;;2.30;;
8887;SDS011;4480;52.370;9.748;2023-07-31T12:03:09;2.00;;;1.80;;
8887;SDS011;4480;52.370;9.748;2023-07-31T12:05:36;2.37;;;1.80;;
8887;SDS011;4480;52.370;9.748;2023-07-31T12:08:09;3.30;;;2.27;;
8887;SDS011;4480;52.370;9.748;2023-07-31T12:10:37;3.20;;;1.60;;
8887;SDS011;4480;52.370;9.748;2023-07-31T12:13:08;2.90;;;1.60;;
8887;SDS011;4480;52.370;9.748;2023-07-31T12:15:39;3.47;;;2.03;;
8887;SDS011;4480;52.370;9.748;2023-07-31T12:18:07;1.87;;;1.60;;
8887;SDS011;4480;52.370;9.748;2023-07-31T12:20:39;2.07;;;1.80;;
8887;SDS011;4480;52.370;9.748;2023-07-31T12:23:13;2.20;;;1.80;;
8887;SDS011;4480;52.370;9.748;2023-07-31T12:25:41;1.57;;;1.47;;
8887;SDS011;4480;52.370;9.748;2023-07-31T12:28:08;2.10;;;1.90;;
8887;SDS011;4480;52.370;9.748;2023-07-31T12:30:37;1.60;;;1.50;;
8887;SDS011;4480;52.370;9.748;2023-07-31T12:33:05;1.80;;;1.50;;
8887;SDS011;4480;52.370;9.748;2023-07-31T12:35:36;2.10;;;1.80;;
8887;SDS011;4480;52.370;9.748;2023-07-31T12:38:04;1.40;;;1.10;;
8887;SDS011;4480;52.370;9.748;2023-07-31T12:40:32;2.17;;;1.97;;
8887;SDS011;4480;52.370;9.748;2023-07-31T12:43:00;2.63;;;1.70;;
8887;SDS011;4480;52.370;9.748;2023-07-31T12:45:28;1.80;;;1.20;;
8887;SDS011;4480;52.370;9.748;2023-07-31T12:47:55;1.50;;;1.40;;
8887;SDS011;4480;52.370;9.748;2023-07-31T12:50:22;2.07;;;1.47;;
8887;SDS011;4480;52.370;9.748;2023-07-31T12:52:50;2.23;;;2.03;;
8887;SDS011;4480;52.370;9.748;2023-07-31T12:55:17;2.07;;;1.50;;
8887;SDS011;4480;52.370;9.748;2023-07-31T12:57:45;3.37;;;1.40;;
8887;SDS011;4480;52.370;9.748;2023-07-31T13:00:13;2.00;;;1.17;;
8887;SDS011;4480;52.370;9.748;2023-07-31T13:02:40;1.20;;;1.10;;
8887;SDS011;4480;52.370;9.748;2023-07-31T13:05:07;1.57;;;1.20;;
8887;SDS011;4480;52.370;9.748;2023-07-31T13:07:34;1.13;;;0.97;;
8887;SDS011;4480;52.370;9.748;2023-07-31T13:10:01;1.30;;;1.03;;
8887;SDS011;4480;52.370;9.748;2023-07-31T13:12:28;1.13;;;1.00;;
8887;SDS011;4480;52.370;9.748;2023-07-31T13:14:56;2.30;;;0.80;;
8887;SDS011;4480;52.370;9.748;2023-07-31T13:17:23;0.67;;;0.50;;
8887;SDS011;4480;52.370;9.748;2023-07-31T13:19:50;1.30;;;1.10;;
8887;SDS011;4480;52.370;9.748;2023-07-31T13:22:16;1.40;;;0.80;;
8887;SDS011;4480;52.370;9.748;2023-07-31T13:24:43;1.80;;;0.87;;
8887;SDS011;4480;52.370;9.748;2023-07-31T13:27:10;1.13;;;0.90;;
8887;SDS011;4480;52.370;9.748;2023-07-31T13:29:37;1.90;;;1.00;;
8887;SDS011;4480;52.370;9.748;2023-07-31T13:32:05;3.20;;;1.43;;
8887;SDS011;4480;52.370;9.748;2023-07-31T13:34:32;3.80;;;1.03;;
8887;SDS011;4480;52.370;9.748;2023-07-31T13:36:59;1.10;;;1.00;;
8887;SDS011;4480;52.370;9.748;2023-07-31T13:39:25;1.97;;;1.10;;
8887;SDS011;4480;52.370;9.748;2023-07-31T13:41:52;1.27;;;0.77;;
8887;SDS011;4480;52.370;9.748;2023-07-31T13:44:20;2.33;;;1.07;;
8887;SDS011;4480;52.370;9.748;2023-07-31T13:46:46;1.60;;;1.17;;
8887;SDS011;4480;52.370;9.748;2023-07-31T13:49:14;2.13;;;1.83;;
8887;SDS011;4480;52.370;9.748;2023-07-31T13:51:41;1.50;;;1.10;;
8887;SDS011;4480;52.370;9.748;2023-07-31T13:54:08;1.03;;;0.83;;
8887;SDS011;4480;52.370;9.748;2023-07-31T13:56:36;1.57;;;1.10;;
8887;SDS011;4480;52.370;9.748;2023-07-31T13:59:04;1.40;;;0.80;;
8887;SDS011;4480;52.370;9.748;2023-07-31T14:01:30;1.30;;;0.80;;
8887;SDS011;4480;52.370;9.748;2023-07-31T14:03:57;1.27;;;0.80;;
8887;SDS011;4480;52.370;9.748;2023-07-31T14:06:25;2.03;;;0.90;;
8887;SDS011;4480;52.370;9.748;2023-07-31T14:08:52;5.07;;;0.80;;
8887;SDS011;4480;52.370;9.748;2023-07-31T14:11:20;1.17;;;0.80;;
8887;SDS011;4480;52.370;9.748;2023-07-31T14:13:47;0.80;;;0.70;;
8887;SDS011;4480;52.370;9.748;2023-07-31T14:16:14;1.97;;;1.17;;
8887;SDS011;4480;52.370;9.748;2023-07-31T14:18:41;1.30;;;1.20;;
8887;SDS011;4480;52.370;9.748;2023-07-31T14:21:07;1.23;;;0.83;;
8887;SDS011;4480;52.370;9.748;2023-07-31T14:23:36;1.00;;;0.90;;
8887;SDS011;4480;52.370;9.748;2023-07-31T14:26:02;1.60;;;1.03;;
8887;SDS011;4480;52.370;9.748;2023-07-31T14:28:29;2.40;;;0.90;;
8887;SDS011;4480;52.370;9.748;2023-07-31T14:30:56;1.80;;;1.13;;
8887;SDS011;4480;52.370;9.748;2023-07-31T14:33:24;2.57;;;1.40;;
8887;SDS011;4480;52.370;9.748;2023-07-31T14:35:51;1.67;;;1.10;;
8887;SDS011;4480;52.370;9.748;2023-07-31T14:38:18;1.77;;;1.40;;
8887;SDS011;4480;52.370;9.748;2023-07-31T14:40:46;1.70;;;1.40;;
8887;SDS011;4480;52.370;9.748;2023-07-31T14:43:12;2.03;;;1.43;;
8887;SDS011;4480;52.370;9.748;2023-07-31T14:45:39;2.17;;;1.97;;
8887;SDS011;4480;52.370;9.748;2023-07-31T14:48:06;1.90;;;1.70;;
8887;SDS011;4480;52.370;9.748;2023-07-31T14:50:33;2.50;;;1.80;;
8887;SDS011;4480;52.370;9.748;2023-07-31T14:53:00;1.90;;;1.70;;
8887;SDS011;4480;52.370;9.748;2023-07-31T14:55:27;3.23;;;2.23;;
8887;SDS011;4480;52.370;9.748;2023-07-31T14:57:55;2.03;;;1.83;;
8887;SDS011;4480;52.370;9.748;2023-07-31T15:00:22;3.30;;;2.67;;
8887;SDS011;4480;52.370;9.748;2023-07-31T15:02:49;2.13;;;1.63;;
8887;SDS011;4480;52.370;9.748;2023-07-31T15:05:16;2.77;;;2.33;;
8887;SDS011;4480;52.370;9.748;2023-07-31T15:07:43;3.00;;;2.07;;
8887;SDS011;4480;52.370;9.748;2023-07-31T15:10:10;1.80;;;1.70;;
8887;SDS011;4480;52.370;9.748;2023-07-31T15:12:36;2.43;;;2.23;;
8887;SDS011;4480;52.370;9.748;2023-07-31T15:15:06;2.63;;;2.43;;
8887;SDS011;4480;52.370;9.748;2023-07-31T15:17:33;2.73;;;2.47;;